Time;durP1;ratioP1;P1;durP2;ratioP2;P2;SDS_P1;SDS_P2;PMS_P1;PMS_P2;Temp;Humidity;BMP_temperature;BMP_pressure;BME280_temperature;BME280_humidity;BME280_pressure;Samples;Min_cycle;Max_cycle;Signal;HPM_P1;HPM_P2
2022/05/13 00:00:38;;;;;;;10.30;7.50;;;;;14.70;94469.00;;;;7390622;19;20192;-77
2022/05/13 00:03:12;;;;;;;11.70;7.63;;;;;14.80;94476.00;;;;7392912;19;20161;-79
2022/05/13 00:05:40;;;;;;;10.95;7.70;;;;;14.70;94471.00;;;;7392274;19;20141;-79
2022/05/13 00:08:08;;;;;;;11.77;7.55;;;;;14.60;94476.00;;;;7392880;19;20168;-77
2022/05/13 00:10:43;;;;;;;8.02;7.05;;;;;14.60;94468.00;;;;7393199;19;20131;-77
2022/05/13 00:13:11;;;;;;;11.90;7.30;;;;;14.50;94470.00;;;;7391643;19;20133;-78
2022/05/13 00:15:44;;;;;;;8.18;6.53;;;;;14.40;94476.00;;;;7389969;19;20144;-77
2022/05/13 00:18:18;;;;;;;10.20;7.75;;;;;14.40;94468.00;;;;7392131;19;20575;-77
2022/05/13 00:20:46;;;;;;;8.65;7.00;;;;;14.40;94465.00;;;;7391245;19;20125;-78
2022/05/13 00:23:14;;;;;;;10.02;7.45;;;;;14.40;94467.00;;;;7391538;19;20125;-77
2022/05/13 00:25:48;;;;;;;9.15;8.05;;;;;14.50;94468.00;;;;7391704;19;20164;-77
2022/05/13 00:28:16;;;;;;;9.38;7.63;;;;;14.50;94486.00;;;;7393966;19;20129;-78
2022/05/13 00:30:48;;;;;;;9.73;7.32;;;;;14.50;94479.00;;;;7392743;19;20156;-78
2022/05/13 00:33:22;;;;;;;8.43;7.07;;;;;14.50;94481.00;;;;7390962;19;20499;-78
2022/05/13 00:35:50;;;;;;;8.10;7.30;;;;;14.50;94466.00;;;;7391353;19;20141;-78
2022/05/13 00:38:18;;;;;;;8.35;7.32;;;;;14.50;94457.00;;;;7392617;19;20129;-77
2022/05/13 00:40:52;;;;;;;11.02;8.35;;;;;14.60;94463.00;;;;7391108;19;20624;-77
2022/05/13 00:43:44;;;;;;;12.80;7.90;;;;;14.50;94461.00;;;;7390856;19;20595;-78
2022/05/13 00:46:22;;;;;;;8.73;7.75;;;;;14.40;94468.00;;;;7391348;19;20141;-77
2022/05/13 00:48:51;;;;;;;10.20;7.70;;;;;14.50;94462.00;;;;7391048;19;20141;-78
2022/05/13 00:51:33;;;;;;;8.50;7.60;;;;;14.40;94459.00;;;;7391636;19;20128;-78
2022/05/13 00:54:02;;;;;;;9.85;8.85;;;;;14.50;94454.00;;;;7393043;19;20575;-78
2022/05/13 00:56:37;;;;;;;11.48;7.95;;;;;14.40;94449.00;;;;7392331;19;20137;-77
2022/05/13 00:59:28;;;;;;;10.73;8.00;;;;;14.40;94448.00;;;;7389630;19;20145;-75
2022/05/13 01:02:02;;;;;;;12.32;9.02;;;;;14.30;94451.00;;;;7392416;19;20152;-79
2022/05/13 01:04:33;;;;;;;15.88;8.75;;;;;14.20;94462.00;;;;7391715;19;20599;-79
2022/05/13 01:07:11;;;;;;;22.88;9.48;;;;;14.20;94446.00;;;;7391444;19;20166;-80
2022/05/13 01:09:52;;;;;;;14.43;9.02;;;;;14.10;94448.00;;;;7401830;19;20595;-82
2022/05/13 01:12:29;;;;;;;10.45;8.40;;;;;14.00;94435.00;;;;7393083;19;20163;-81
2022/05/13 01:15:09;;;;;;;14.38;8.82;;;;;13.90;94448.00;;;;7395307;19;20201;-81
2022/05/13 01:20:47;;;;;;;11.77;8.52;;;;;13.90;94448.00;;;;7422288;19;20136;-81
2022/05/13 01:23:19;;;;;;;14.75;9.68;;;;;13.80;94446.00;;;;7426708;19;20181;-81
2022/05/13 01:26:14;;;;;;;14.30;10.80;;;;;13.90;94441.00;;;;7385009;19;20228;-81
2022/05/13 01:29:03;;;;;;;15.77;10.75;;;;;13.90;94457.00;;;;7415619;19;20188;-83
2022/05/13 01:31:43;;;;;;;18.85;10.88;;;;;13.90;94462.00;;;;7426958;19;20129;-82
2022/05/13 01:34:17;;;;;;;12.52;9.80;;;;;13.80;94453.00;;;;7402117;19;20168;-83
2022/05/13 01:36:45;;;;;;;13.32;10.82;;;;;13.80;94462.00;;;;7400198;19;20212;-82
2022/05/13 01:39:12;;;;;;;15.65;10.88;;;;;13.70;94466.00;;;;7406444;19;20148;-81
2022/05/13 01:41:46;;;;;;;17.35;11.43;;;;;13.80;94479.00;;;;7396809;19;20136;-82
2022/05/13 01:44:14;;;;;;;16.35;10.80;;;;;13.80;94458.00;;;;7398426;19;20129;-80
2022/05/13 01:46:41;;;;;;;13.75;10.50;;;;;13.70;94454.00;;;;7397415;19;20502;-80
2022/05/13 01:49:15;;;;;;;14.30;9.60;;;;;13.80;94477.00;;;;7398196;19;20137;-80
2022/05/13 01:51:43;;;;;;;14.70;9.30;;;;;13.60;94468.00;;;;7397332;19;20659;-80
2022/05/13 01:54:10;;;;;;;17.25;9.50;;;;;13.50;94467.00;;;;7396939;19;20137;-80
2022/05/13 01:56:44;;;;;;;20.77;8.98;;;;;13.60;94464.00;;;;7396050;19;20611;-79
2022/05/13 01:59:11;;;;;;;12.50;8.95;;;;;13.30;94466.00;;;;7397402;19;20121;-80
2022/05/13 02:01:39;;;;;;;11.95;8.73;;;;;13.40;94461.00;;;;7394229;19;20148;-81
2022/05/13 02:04:16;;;;;;;12.93;8.93;;;;;13.40;94466.00;;;;7396653;19;20148;-80
2022/05/13 02:06:43;;;;;;;14.15;9.23;;;;;13.20;94468.00;;;;7396862;19;20137;-80
2022/05/13 02:09:11;;;;;;;16.20;9.10;;;;;13.20;94463.00;;;;7397167;19;20615;-80
2022/05/13 02:11:45;;;;;;;14.50;9.13;;;;;13.40;94467.00;;;;7396358;19;20174;-80
2022/05/13 02:14:17;;;;;;;12.85;8.45;;;;;13.20;94463.00;;;;7396489;19;20164;-80
2022/05/13 02:16:45;;;;;;;15.52;8.45;;;;;13.10;94455.00;;;;7397070;19;20638;-81
2022/05/13 02:19:19;;;;;;;18.00;8.77;;;;;13.10;94458.00;;;;7397207;19;20143;-80
2022/05/13 02:21:47;;;;;;;15.35;8.50;;;;;13.20;94454.00;;;;7393982;19;20181;-81
2022/05/13 02:24:14;;;;;;;12.65;8.75;;;;;13.20;94449.00;;;;7395819;19;20151;-80
2022/05/13 02:26:48;;;;;;;11.88;8.70;;;;;13.20;94446.00;;;;7396944;19;20129;-79
2022/05/13 02:29:22;;;;;;;15.93;9.25;;;;;13.10;94439.00;;;;7394242;19;20176;-80
2022/05/13 02:31:56;;;;;;;14.38;8.23;;;;;13.20;94441.00;;;;7396064;19;20128;-80
2022/05/13 02:34:23;;;;;;;14.80;8.95;;;;;13.10;94436.00;;;;7393714;19;20179;-80
2022/05/13 02:36:51;;;;;;;10.35;7.88;;;;;13.00;94441.00;;;;7395038;19;20136;-80
2022/05/13 02:39:25;;;;;;;12.82;7.75;;;;;13.10;94436.00;;;;7400537;19;20488;-83
2022/05/13 02:41:53;;;;;;;14.40;8.48;;;;;13.10;94435.00;;;;7395087;19;20160;-80
2022/05/13 02:44:21;;;;;;;13.13;8.15;;;;;13.10;94438.00;;;;7396947;19;20172;-79
2022/05/13 02:46:55;;;;;;;14.32;7.97;;;;;13.00;94437.00;;;;7397699;19;20136;-80
2022/05/13 02:49:23;;;;;;;17.13;8.90;;;;;13.00;94447.00;;;;7396733;19;20481;-81
2022/05/13 02:51:51;;;;;;;14.02;8.93;;;;;13.00;94450.00;;;;7395570;19;20163;-81
2022/05/13 02:54:25;;;;;;;16.58;8.55;;;;;13.00;94452.00;;;;7397728;19;20163;-81
2022/05/13 02:56:53;;;;;;;16.88;9.05;;;;;13.00;94452.00;;;;7397681;19;20154;-81
2022/05/13 02:59:20;;;;;;;15.68;8.52;;;;;13.00;94443.00;;;;7396405;19;20471;-81
2022/05/13 03:01:54;;;;;;;15.18;8.60;;;;;13.00;94442.00;;;;7393091;19;20151;-81
2022/05/13 03:04:23;;;;;;;11.77;8.75;;;;;13.00;94440.00;;;;7397465;19;20125;-80
2022/05/13 03:06:51;;;;;;;17.58;9.63;;;;;12.90;94441.00;;;;7395317;19;20623;-81
2022/05/13 03:09:25;;;;;;;18.15;8.93;;;;;13.00;94437.00;;;;7394841;19;20143;-81
2022/05/13 03:11:54;;;;;;;17.75;9.88;;;;;13.00;94433.00;;;;7394591;19;20140;-79
2022/05/13 03:14:21;;;;;;;19.38;9.63;;;;;12.90;94434.00;;;;7395723;19;20143;-80
2022/05/13 03:16:55;;;;;;;19.40;8.80;;;;;12.90;94434.00;;;;7396240;19;20159;-80
2022/05/13 03:19:23;;;;;;;16.73;8.18;;;;;12.80;94429.00;;;;7395793;19;20789;-80
2022/05/13 03:21:51;;;;;;;15.45;8.75;;;;;12.90;94421.00;;;;7394659;19;20125;-80
2022/05/13 03:24:25;;;;;;;15.65;9.32;;;;;12.60;94436.00;;;;7398286;19;20128;-80
2022/05/13 03:26:56;;;;;;;13.38;8.57;;;;;12.70;94434.00;;;;7395648;19;20626;-80
2022/05/13 03:29:24;;;;;;;14.02;8.95;;;;;12.70;94439.00;;;;7395002;19;20149;-80
2022/05/13 03:31:58;;;;;;;11.23;8.63;;;;;12.80;94437.00;;;;7395452;19;20187;-80
2022/05/13 03:34:26;;;;;;;13.50;8.60;;;;;12.70;94436.00;;;;7395382;19;20224;-80
2022/05/13 03:36:54;;;;;;;12.82;8.32;;;;;12.70;94441.00;;;;7395983;19;20141;-81
2022/05/13 03:39:28;;;;;;;14.88;7.72;;;;;12.80;94444.00;;;;7397161;19;20590;-80
2022/05/13 03:41:56;;;;;;;13.23;7.75;;;;;12.70;94448.00;;;;7393450;19;20595;-80
2022/05/13 03:44:23;;;;;;;15.15;8.02;;;;;12.70;94437.00;;;;7394513;19;20128;-80
2022/05/13 03:46:58;;;;;;;12.13;7.78;;;;;12.70;94442.00;;;;7393919;19;20639;-81
2022/05/13 03:49:28;;;;;;;14.88;7.75;;;;;12.70;94434.00;;;;7391565;19;20121;-80
2022/05/13 03:51:55;;;;;;;9.93;7.20;;;;;12.60;94444.00;;;;7396421;19;20581;-81
2022/05/13 03:54:29;;;;;;;12.48;7.35;;;;;12.60;94437.00;;;;7397779;19;20120;-80
2022/05/13 03:57:00;;;;;;;15.35;7.50;;;;;12.60;94434.00;;;;7395512;19;20162;-80
2022/05/13 03:59:27;;;;;;;13.38;7.22;;;;;12.60;94425.00;;;;7393532;19;20164;-79
2022/05/13 04:02:02;;;;;;;11.68;6.63;;;;;12.50;94408.00;;;;7392579;19;20137;-80
2022/05/13 04:08:56;;;;;;;14.40;7.20;;;;;12.50;94423.00;;;;7393652;19;20164;-80
2022/05/13 04:10:09;;;;;;;12.93;6.30;;;;;12.50;94416.00;;;;7394047;19;20133;-81
2022/05/13 04:18:21;;;;;;;12.80;6.70;;;;;12.40;94444.00;;;;7392956;19;20144;-80
2022/05/13 04:20:49;;;;;;;7.55;5.75;;;;;12.50;94437.00;;;;7396189;19;20661;-81
2022/05/13 04:23:18;;;;;;;13.02;6.32;;;;;12.50;94442.00;;;;7396802;19;20136;-81
2022/05/13 04:25:52;;;;;;;12.43;5.93;;;;;12.50;94436.00;;;;7395271;19;20494;-80
2022/05/13 04:28:27;;;;;;;16.77;6.50;;;;;12.50;94440.00;;;;7395315;19;20141;-81
2022/05/13 04:31:09;;;;;;;15.90;5.90;;;;;12.60;94442.00;;;;7397042;19;20117;-80
2022/05/13 04:33:38;;;;;;;12.48;6.50;;;;;12.70;94438.00;;;;7397030;19;20164;-81
2022/05/13 04:36:12;;;;;;;9.60;5.63;;;;;12.70;94442.00;;;;7397894;19;20140;-81
2022/05/13 04:38:40;;;;;;;15.48;6.22;;;;;12.70;94447.00;;;;7406865;19;20147;-81
2022/05/13 04:44:02;;;;;;;11.02;5.97;;;;;12.80;94443.00;;;;7400621;19;20124;-81
2022/05/13 04:46:31;;;;;;;12.27;5.78;;;;;12.80;94458.00;;;;7403631;19;20149;-81
2022/05/13 04:49:01;;;;;;;12.90;5.38;;;;;12.70;94456.00;;;;7403733;19;20141;-82
2022/05/13 04:51:37;;;;;;;7.47;5.18;;;;;12.70;94460.00;;;;7396446;19;20140;-80
2022/05/13 04:54:08;;;;;;;12.73;5.15;;;;;12.80;94463.00;;;;7407612;19;20125;-81
2022/05/13 04:56:36;;;;;;;10.02;4.68;;;;;12.60;94467.00;;;;7405184;19;20153;-82
2022/05/13 04:59:10;;;;;;;8.93;5.07;;;;;12.80;94474.00;;;;7415928;19;20176;-82
2022/05/13 05:01:38;;;;;;;9.20;5.18;;;;;12.80;94473.00;;;;7416025;19;20141;-81
2022/05/13 05:04:05;;;;;;;10.35;4.90;;;;;12.90;94467.00;;;;7419411;19;20189;-81
2022/05/13 05:06:42;;;;;;;10.90;5.10;;;;;13.10;94462.00;;;;7418801;19;20132;-82
2022/05/13 05:09:09;;;;;;;8.82;4.70;;;;;13.20;94463.00;;;;7421816;19;20169;-81
2022/05/13 05:11:37;;;;;;;11.40;4.78;;;;;13.10;94471.00;;;;7422830;19;20117;-80
2022/05/13 05:14:11;;;;;;;7.68;4.70;;;;;13.20;94466.00;;;;7422460;19;20137;-81
2022/05/13 05:16:43;;;;;;;11.50;4.65;;;;;13.40;94468.00;;;;7420531;19;20142;-80
2022/05/13 05:19:12;;;;;;;10.32;5.07;;;;;13.40;94468.00;;;;7419718;19;20152;-81
2022/05/13 05:21:51;;;;;;;7.82;4.47;;;;;13.40;94478.00;;;;7416875;19;20137;-80
2022/05/13 05:24:19;;;;;;;9.60;4.50;;;;;13.30;94488.00;;;;7422290;19;20140;-81
2022/05/13 05:26:46;;;;;;;7.72;4.75;;;;;13.40;94486.00;;;;7423321;19;20125;-79
2022/05/13 05:29:27;;;;;;;10.05;5.18;;;;;13.40;94478.00;;;;7421645;19;20164;-81
2022/05/13 05:32:01;;;;;;;13.30;4.82;;;;;13.60;94469.00;;;;7410421;19;20621;-80
2022/05/13 05:34:35;;;;;;;11.90;4.80;;;;;13.50;94471.00;;;;7418252;19;20201;-80
2022/05/13 05:37:03;;;;;;;7.72;4.53;;;;;13.80;94476.00;;;;7424709;19;20132;-81
2022/05/13 05:39:30;;;;;;;7.97;4.82;;;;;13.60;94468.00;;;;7423389;19;20133;-81
2022/05/13 05:42:06;;;;;;;10.35;4.63;;;;;13.70;94484.00;;;;7422426;19;20173;-78
2022/05/13 05:44:40;;;;;;;7.70;4.40;;;;;13.80;94491.00;;;;7415588;19;20223;-81
2022/05/13 05:50:49;;;;;;;5.55;4.07;;;;;13.70;94472.00;;;;7380429;19;20200;-79
2022/05/13 05:59:21;;;;;;;8.43;4.45;;;;;13.90;94474.00;;;;7414669;19;20204;-81
2022/05/13 06:01:56;;;;;;;6.80;4.20;;;;;13.80;94485.00;;;;7409219;19;20141;-81
2022/05/13 06:04:30;;;;;;;7.82;3.90;;;;;13.60;94479.00;;;;7412206;19;20139;-80
2022/05/13 06:06:57;;;;;;;6.95;4.15;;;;;13.80;94480.00;;;;7415308;19;20164;-81
2022/05/13 06:09:26;;;;;;;9.82;4.57;;;;;13.60;94475.00;;;;7409194;19;20169;-80
2022/05/13 06:12:00;;;;;;;9.80;4.40;;;;;13.90;94479.00;;;;7402679;19;20618;-79
2022/05/13 06:14:28;;;;;;;10.80;4.40;;;;;14.00;94478.00;;;;7402734;19;20136;-81
2022/05/13 06:16:56;;;;;;;5.93;4.15;;;;;14.00;94477.00;;;;7401372;19;20596;-80
2022/05/13 06:19:31;;;;;;;7.18;4.22;;;;;14.40;94488.00;;;;7403309;19;20121;-80
2022/05/13 06:21:58;;;;;;;13.90;4.60;;;;;14.40;94488.00;;;;7402664;19;20596;-80
2022/05/13 06:24:26;;;;;;;12.15;4.63;;;;;14.40;94482.00;;;;7401024;19;20204;-79
2022/05/13 06:27:00;;;;;;;7.45;4.55;;;;;14.70;94478.00;;;;7403020;19;20133;-79
2022/05/13 06:29:28;;;;;;;9.45;4.43;;;;;14.50;94483.00;;;;7400183;19;20215;-79
2022/05/13 06:31:58;;;;;;;9.63;3.90;;;;;14.70;94480.00;;;;7401754;19;20137;-80
2022/05/13 06:34:40;;;;;;;6.07;3.83;;;;;15.00;94478.00;;;;7404543;19;20231;-80
2022/05/13 06:37:08;;;;;;;12.32;3.95;;;;;15.50;94471.00;;;;7398308;19;20349;-80
2022/05/13 06:39:42;;;;;;;9.75;3.58;;;;;15.80;94480.00;;;;7396561;19;20136;-83
2022/05/13 06:42:10;;;;;;;7.15;3.60;;;;;15.60;94478.00;;;;7394288;19;20522;-85
2022/05/13 06:44:37;;;;;;;10.75;3.65;;;;;15.60;94485.00;;;;7396508;19;20141;-84
2022/05/13 06:47:11;;;;;;;9.88;3.72;;;;;15.20;94495.00;;;;7394804;19;20141;-78
2022/05/13 06:49:39;;;;;;;9.20;4.18;;;;;15.50;94485.00;;;;7395525;19;20196;-79
2022/05/13 06:52:06;;;;;;;5.05;2.92;;;;;15.80;94483.00;;;;7394799;19;20503;-80
2022/05/13 06:55:00;;;;;;;10.63;3.63;;;;;16.50;94477.00;;;;7396704;19;20129;-84
2022/05/13 06:57:27;;;;;;;7.15;3.03;;;;;17.20;94481.00;;;;7397319;19;20121;-84
2022/05/13 07:00:09;;;;;;;8.10;3.15;;;;;17.20;94474.00;;;;7395438;19;20143;-81
2022/05/13 07:02:44;;;;;;;5.43;2.97;;;;;16.70;94482.00;;;;7394765;19;20513;-79
2022/05/13 07:05:20;;;;;;;7.70;2.85;;;;;17.00;94481.00;;;;7392562;19;20733;-81
2022/05/13 07:07:49;;;;;;;7.78;3.30;;;;;17.80;94470.00;;;;7392803;19;20200;-81
2022/05/13 07:10:17;;;;;;;9.88;3.17;;;;;17.90;94487.00;;;;7389519;19;20145;-83
2022/05/13 07:12:51;;;;;;;11.95;3.58;;;;;18.60;94482.00;;;;7390073;19;20135;-83
2022/05/13 07:15:21;;;;;;;5.55;3.28;;;;;18.40;94487.00;;;;7390006;19;20903;-79
2022/05/13 07:17:48;;;;;;;8.20;2.83;;;;;18.90;94486.00;;;;7389037;19;20483;-80
2022/05/13 07:20:23;;;;;;;9.40;3.00;;;;;18.60;94482.00;;;;7388600;19;20133;-79
2022/05/13 07:22:50;;;;;;;11.25;2.92;;;;;19.00;94487.00;;;;7386522;19;20153;-80
2022/05/13 07:25:18;;;;;;;5.47;2.50;;;;;18.40;94507.00;;;;7389441;19;21006;-80
2022/05/13 07:27:53;;;;;;;5.05;2.65;;;;;17.80;94515.00;;;;7394648;19;20129;-81
2022/05/13 07:30:20;;;;;;;9.20;2.80;;;;;16.80;94511.00;;;;7393341;19;20166;-82
2022/05/13 07:32:48;;;;;;;7.50;2.70;;;;;17.00;94520.00;;;;7393283;19;20168;-81
2022/05/13 07:42:33;;;;;;;7.93;2.80;;;;;16.70;94515.00;;;;7395891;19;20141;-80
2022/05/13 07:45:03;;;;;;;9.00;2.65;;;;;16.60;94526.00;;;;7394998;19;20129;-84
2022/05/13 07:47:39;;;;;;;5.38;2.40;;;;;17.60;94533.00;;;;7392543;19;20148;-81
2022/05/13 07:50:10;;;;;;;10.35;3.03;;;;;18.30;94523.00;;;;7394112;19;20143;-81
2022/05/13 07:52:45;;;;;;;8.05;2.80;;;;;18.30;94532.00;;;;7388838;19;20140;-81
2022/05/13 07:55:16;;;;;;;6.63;2.35;;;;;18.50;94526.00;;;;7392595;19;20133;-81
2022/05/13 07:57:45;;;;;;;7.68;2.83;;;;;18.20;94522.00;;;;7395453;19;20131;-82
2022/05/13 08:00:33;;;;;;;7.03;2.80;;;;;17.50;94527.00;;;;7390811;19;20170;-79
2022/05/13 08:03:12;;;;;;;7.57;2.90;;;;;18.30;94530.00;;;;7391323;19;20137;-81
2022/05/13 08:05:50;;;;;;;6.85;2.60;;;;;17.90;94543.00;;;;7392216;19;20116;-80
2022/05/13 08:08:22;;;;;;;7.07;2.45;;;;;17.60;94542.00;;;;7392332;19;20133;-81
2022/05/13 08:10:58;;;;;;;7.55;3.10;;;;;17.40;94539.00;;;;7392047;19;20148;-79
2022/05/13 08:13:29;;;;;;;9.18;3.28;;;;;17.70;94537.00;;;;7392955;19;20153;-80
2022/05/13 08:16:10;;;;;;;5.57;2.65;;;;;17.00;94548.00;;;;7392828;19;20605;-79
2022/05/13 08:18:41;;;;;;;11.77;3.28;;;;;16.90;94540.00;;;;7392068;19;20128;-82
2022/05/13 08:21:15;;;;;;;6.38;3.03;;;;;18.20;94524.00;;;;7391640;19;20141;-79
2022/05/13 08:23:43;;;;;;;5.63;2.75;;;;;19.80;94520.00;;;;7390431;19;20152;-79
2022/05/13 08:26:11;;;;;;;9.07;2.92;;;;;19.40;94544.00;;;;7391847;19;20140;-80
2022/05/13 08:28:47;;;;;;;7.70;2.90;;;;;18.80;94527.00;;;;7394247;19;20132;-80
2022/05/13 08:31:16;;;;;;;8.60;3.33;;;;;19.10;94539.00;;;;7390843;19;20144;-81
2022/05/13 08:33:44;;;;;;;6.18;2.70;;;;;19.00;94523.00;;;;7390660;19;20136;-79
2022/05/13 08:36:23;;;;;;;5.85;2.75;;;;;19.50;94516.00;;;;7389552;19;20860;-81
2022/05/13 08:38:56;;;;;;;10.32;2.90;;;;;19.30;94536.00;;;;7392391;19;20139;-78
2022/05/13 08:41:49;;;;;;;7.50;2.70;;;;;18.70;94525.00;;;;7391370;19;20143;-80
2022/05/13 08:44:21;;;;;;;7.65;3.10;;;;;19.40;94527.00;;;;7392088;19;20125;-79
2022/05/13 08:47:13;;;;;;;8.40;2.95;;;;;19.50;94533.00;;;;7391527;19;20501;-80
2022/05/13 08:49:53;;;;;;;8.77;2.90;;;;;19.00;94520.00;;;;7391122;19;20136;-80
2022/05/13 08:55:34;;;;;;;7.50;2.70;;;;;19.30;94546.00;;;;7391272;19;20126;-80
2022/05/13 08:58:18;;;;;;;7.13;2.88;;;;;19.20;94538.00;;;;7391125;19;20140;-81
2022/05/13 09:00:59;;;;;;;7.68;3.08;;;;;19.30;94540.00;;;;7390546;19;20616;-80
2022/05/13 09:04:01;;;;;;;5.63;2.42;;;;;18.60;94537.00;;;;7389260;19;20121;-78
2022/05/13 09:06:52;;;;;;;6.45;2.42;;;;;17.80;94556.00;;;;7390316;19;20465;-80
2022/05/13 09:09:34;;;;;;;7.78;2.92;;;;;19.30;94535.00;;;;7391321;19;20605;-82
2022/05/13 09:12:20;;;;;;;9.20;2.50;;;;;19.50;94536.00;;;;7390530;19;20162;-79
2022/05/13 09:15:09;;;;;;;8.65;2.83;;;;;20.10;94532.00;;;;7390213;19;20579;-81
2022/05/13 09:18:00;;;;;;;9.68;2.88;;;;;20.00;94566.00;;;;7390492;19;20137;-83
2022/05/13 09:20:54;;;;;;;5.38;2.53;;;;;20.00;94539.00;;;;7390150;19;20147;-83
2022/05/13 09:23:25;;;;;;;9.75;2.50;;;;;20.20;94538.00;;;;7389432;19;20603;-80
2022/05/13 09:26:14;;;;;;;6.90;2.20;;;;;20.50;94547.00;;;;7389904;19;20125;-80
2022/05/13 09:29:04;;;;;;;6.35;2.30;;;;;20.60;94543.00;;;;7391284;19;20196;-82
2022/05/13 09:31:43;;;;;;;6.40;2.25;;;;;20.30;94542.00;;;;7389567;19;20129;-80
2022/05/13 09:34:39;;;;;;;8.13;2.70;;;;;21.40;94529.00;;;;7389925;19;20158;-82
2022/05/13 09:37:26;;;;;;;10.98;2.50;;;;;21.50;94534.00;;;;7390299;19;20165;-81
2022/05/13 09:40:12;;;;;;;6.65;2.63;;;;;21.10;94534.00;;;;7389588;19;20145;-79
2022/05/13 09:42:49;;;;;;;6.80;2.45;;;;;21.40;94531.00;;;;7389212;19;20149;-80
2022/05/13 09:45:22;;;;;;;7.57;2.75;;;;;20.40;94533.00;;;;7389581;19;20626;-80
2022/05/13 09:48:05;;;;;;;9.50;2.85;;;;;22.00;94523.00;;;;7393308;19;20149;-80
2022/05/13 09:50:42;;;;;;;11.23;3.20;;;;;21.90;94531.00;;;;7397878;19;20608;-81
2022/05/13 09:53:25;;;;;;;7.93;2.50;;;;;21.10;94540.00;;;;7397749;19;20151;-79
2022/05/13 09:55:55;;;;;;;6.72;2.65;;;;;21.00;94526.00;;;;7396759;19;20167;-82
2022/05/13 09:58:48;;;;;;;5.57;2.95;;;;;21.20;94534.00;;;;7397198;19;20156;-81
2022/05/13 10:01:30;;;;;;;6.75;2.60;;;;;21.00;94530.00;;;;7393138;19;20566;-79
2022/05/13 10:04:18;;;;;;;6.85;2.50;;;;;22.00;94530.00;;;;7394677;19;20691;-80
2022/05/13 10:06:47;;;;;;;7.15;3.20;;;;;21.90;94545.00;;;;7396848;19;20580;-80
2022/05/13 10:15:45;;;;;;;5.60;2.80;;;;;19.80;94564.00;;;;7396781;19;20627;-80
2022/05/13 10:18:21;;;;;;;6.00;2.65;;;;;19.20;94578.00;;;;7396120;19;20492;-80
2022/05/13 10:21:08;;;;;;;5.80;2.42;;;;;18.90;94577.00;;;;7396420;19;20128;-80
2022/05/13 10:23:59;;;;;;;8.93;3.35;;;;;18.80;94548.00;;;;7396382;19;20121;-80
2022/05/13 10:26:41;;;;;;;6.70;3.40;;;;;20.20;94558.00;;;;7395967;19;20137;-79
2022/05/13 10:29:30;;;;;;;8.13;3.63;;;;;21.50;94549.00;;;;7396538;19;20611;-79
2022/05/13 10:32:32;;;;;;;5.85;2.92;;;;;20.90;94557.00;;;;7397046;19;20129;-80
2022/05/13 10:35:04;;;;;;;6.18;3.05;;;;;20.90;94549.00;;;;7394738;19;20136;-81
2022/05/13 10:38:19;;;;;;;9.07;4.05;;;;;21.30;94559.00;;;;7395959;19;20168;-80
2022/05/13 10:40:48;;;;;;;7.53;2.97;;;;;21.10;94571.00;;;;7396548;19;20475;-79
2022/05/13 10:44:09;;;;;;;5.03;2.83;;;;;20.70;94548.00;;;;7399510;19;20148;-79
2022/05/13 10:50:45;;;;;;;5.55;2.80;;;;;20.70;94541.00;;;;7398967;19;20152;-78
2022/05/13 10:53:33;;;;;;;5.10;2.70;;;;;21.70;94540.00;;;;7400289;19;20144;-81
2022/05/13 10:56:10;;;;;;;8.43;3.13;;;;;21.50;94559.00;;;;7400329;19;20140;-78
2022/05/13 10:59:15;;;;;;;8.13;2.95;;;;;21.90;94547.00;;;;7398754;19;20128;-78
2022/05/13 11:02:22;;;;;;;7.25;2.80;;;;;21.20;94536.00;;;;7394279;19;20272;-78
2022/05/13 11:05:02;;;;;;;7.32;3.33;;;;;22.10;94529.00;;;;7396019;19;20147;-78
2022/05/13 11:07:43;;;;;;;8.10;2.88;;;;;21.80;94543.00;;;;7395990;19;20137;-81
2022/05/13 11:10:22;;;;;;;6.18;2.55;;;;;22.30;94560.00;;;;7395239;19;20599;-80
2022/05/13 11:13:41;;;;;;;6.07;2.80;;;;;21.50;94565.00;;;;7396329;19;20484;-79
2022/05/13 11:16:29;;;;;;;6.97;2.58;;;;;20.70;94541.00;;;;7391772;19;20149;-80
2022/05/13 11:19:09;;;;;;;5.05;2.50;;;;;20.10;94565.00;;;;7397573;19;20607;-80
2022/05/13 11:21:56;;;;;;;5.57;2.70;;;;;19.90;94549.00;;;;7396214;19;20543;-81
2022/05/13 11:28:19;;;;;;;6.25;2.78;;;;;20.10;94563.00;;;;7394983;19;20224;-78
2022/05/13 11:31:05;;;;;;;6.20;2.95;;;;;20.20;94567.00;;;;7394098;19;20136;-78
2022/05/13 11:33:57;;;;;;;7.13;2.45;;;;;20.10;94542.00;;;;7392739;19;20165;-79
2022/05/13 11:36:53;;;;;;;5.18;2.78;;;;;22.60;94537.00;;;;7393582;19;20124;-80
2022/05/13 11:39:58;;;;;;;4.63;2.30;;;;;22.20;94556.00;;;;7395494;19;20133;-79
2022/05/13 11:43:33;;;;;;;6.60;2.80;;;;;21.00;94541.00;;;;7394048;19;20557;-79
2022/05/13 11:46:41;;;;;;;5.53;2.50;;;;;19.70;94568.00;;;;7392005;19;20137;-80
2022/05/13 11:49:21;;;;;;;5.35;2.13;;;;;19.80;94570.00;;;;7391767;19;20608;-79
2022/05/13 11:52:02;;;;;;;6.43;2.42;;;;;21.10;94560.00;;;;7394206;19;20149;-79
2022/05/13 11:54:31;;;;;;;3.72;2.28;;;;;19.90;94538.00;;;;7394643;19;20591;-79
2022/05/13 11:57:24;;;;;;;8.00;2.35;;;;;21.80;94536.00;;;;7394241;19;20516;-79
2022/05/13 12:00:14;;;;;;;5.75;2.38;;;;;22.60;94539.00;;;;7394644;19;20511;-78
2022/05/13 12:02:50;;;;;;;4.85;2.65;;;;;23.50;94529.00;;;;7394633;19;20592;-80
2022/05/13 12:05:18;;;;;;;5.75;2.53;;;;;23.40;94521.00;;;;7395892;19;20133;-78
2022/05/13 12:08:22;;;;;;;4.50;2.50;;;;;22.90;94521.00;;;;7397940;19;20136;-79
2022/05/13 12:11:44;;;;;;;6.75;2.22;;;;;23.60;94520.00;;;;7391816;19;20156;-78
2022/05/13 12:14:29;;;;;;;6.75;2.45;;;;;23.60;94511.00;;;;7396733;19;20137;-76
2022/05/13 12:17:26;;;;;;;5.63;2.22;;;;;22.60;94516.00;;;;7396850;19;20169;-75
2022/05/13 12:20:03;;;;;;;4.43;2.30;;;;;21.90;94528.00;;;;7390757;19;20163;-76
2022/05/13 12:22:38;;;;;;;8.10;2.72;;;;;22.90;94518.00;;;;7389596;19;20148;-78
2022/05/13 12:25:35;;;;;;;6.47;2.47;;;;;22.70;94521.00;;;;7392415;19;20240;-78
2022/05/13 12:28:31;;;;;;;6.18;2.35;;;;;21.90;94561.00;;;;7395095;19;20136;-79
2022/05/13 12:30:59;;;;;;;5.72;2.47;;;;;22.40;94527.00;;;;7395388;19;20180;-78
2022/05/13 12:33:36;;;;;;;4.75;2.78;;;;;22.80;94525.00;;;;7394929;19;20168;-80
2022/05/13 12:39:10;;;;;;;8.38;2.33;;;;;21.70;94552.00;;;;7394590;19;20153;-78
2022/05/13 12:41:43;;;;;;;3.38;2.10;;;;;21.60;94529.00;;;;7395261;19;20158;-79
2022/05/13 12:44:33;;;;;;;4.22;2.08;;;;;22.20;94523.00;;;;7394918;19;20160;-80
2022/05/13 12:47:18;;;;;;;6.70;2.15;;;;;23.00;94526.00;;;;7396149;19;20129;-80
2022/05/13 12:49:56;;;;;;;3.03;1.90;;;;;22.00;94525.00;;;;7396067;19;20129;-79
2022/05/13 12:52:28;;;;;;;3.45;1.90;;;;;22.00;94552.00;;;;7395226;19;20140;-79
2022/05/13 12:55:30;;;;;;;4.60;2.28;;;;;20.60;94525.00;;;;7394240;19;20666;-78
2022/05/13 12:58:06;;;;;;;5.47;2.30;;;;;21.80;94517.00;;;;7394004;19;20615;-81
2022/05/13 13:00:49;;;;;;;4.80;2.08;;;;;22.70;94517.00;;;;7394224;19;20176;-78
2022/05/13 13:03:19;;;;;;;5.55;2.03;;;;;22.70;94523.00;;;;7394640;19;20553;-78
2022/05/13 13:06:06;;;;;;;5.30;2.10;;;;;22.20;94518.00;;;;7394468;19;20148;-78
2022/05/13 13:08:37;;;;;;;8.38;2.50;;;;;22.00;94518.00;;;;7393257;19;20149;-79
2022/05/13 13:11:49;;;;;;;6.03;2.17;;;;;22.30;94511.00;;;;7387426;19;20222;-80
2022/05/13 13:14:49;;;;;;;5.10;2.03;;;;;22.90;94513.00;;;;7393048;19;20525;-78
2022/05/13 13:17:37;;;;;;;5.13;2.35;;;;;21.50;94513.00;;;;7390206;19;20137;-78
2022/05/13 13:20:08;;;;;;;6.53;2.10;;;;;20.40;94546.00;;;;7392409;19;20141;-77
2022/05/13 13:22:46;;;;;;;4.10;2.00;;;;;21.50;94514.00;;;;7398182;19;20144;-79
2022/05/13 13:25:28;;;;;;;6.10;2.03;;;;;22.20;94515.00;;;;7396632;19;20133;-79
2022/05/13 13:28:10;;;;;;;3.63;1.95;;;;;21.20;94516.00;;;;7398474;19;20120;-77
2022/05/13 13:30:44;;;;;;;5.97;2.22;;;;;21.50;94515.00;;;;7398146;19;20495;-79
2022/05/13 13:33:19;;;;;;;4.90;2.05;;;;;21.90;94515.00;;;;7397912;19;20165;-79
2022/05/13 13:35:48;;;;;;;6.65;2.20;;;;;21.90;94519.00;;;;7398445;19;20145;-78
2022/05/13 13:38:18;;;;;;;4.13;2.20;;;;;21.50;94512.00;;;;7398573;19;20125;-78
2022/05/13 13:40:52;;;;;;;5.15;2.10;;;;;21.60;94513.00;;;;7399367;19;20495;-79
2022/05/13 13:43:36;;;;;;;5.28;2.58;;;20.40;99.90;21.10;94505.00;;;;7398150;19;20672;-80
2022/05/13 13:46:22;;;;;;;7.40;2.38;;;20.50;99.90;21.20;94490.00;;;;7397681;19;20133;-78
2022/05/13 13:48:56;;;;;;;7.22;2.00;;;20.20;99.90;21.60;94479.00;;;;7398616;19;20461;-78
2022/05/13 13:51:35;;;;;;;3.45;1.67;;;20.40;99.90;21.20;94531.00;;;;7398496;19;20133;-79